sensor_id;sensor_type;location;lat;lon;timestamp;temperature;humidity
18139;DHT22;9195;53.176;9.486;2022-12-07T00:01:46;3.80;99.90
18139;DHT22;9195;53.176;9.486;2022-12-07T00:04:15;3.80;99.90
18139;DHT22;9195;53.176;9.486;2022-12-07T00:06:42;3.90;99.90
18139;DHT22;9195;53.176;9.486;2022-12-07T00:09:16;3.80;99.90
18139;DHT22;9195;53.176;9.486;2022-12-07T00:11:42;3.90;99.90
18139;DHT22;9195;53.176;9.486;2022-12-07T00:14:12;4.00;99.90
18139;DHT22;9195;53.176;9.486;2022-12-07T00:16:38;4.10;99.90
18139;DHT22;9195;53.176;9.486;2022-12-07T00:19:04;4.00;99.90
18139;DHT22;9195;53.176;9.486;2022-12-07T00:21:32;4.10;99.90
18139;DHT22;9195;53.176;9.486;2022-12-07T00:23:58;4.10;99.90
18139;DHT22;9195;53.176;9.486;2022-12-07T00:26:34;4.10;99.90
18139;DHT22;9195;53.176;9.486;2022-12-07T00:29:02;4.10;99.90
18139;DHT22;9195;53.176;9.486;2022-12-07T00:31:34;4.10;99.90
18139;DHT22;9195;53.176;9.486;2022-12-07T00:34:07;4.20;99.90
18139;DHT22;9195;53.176;9.486;2022-12-07T00:36:36;4.10;99.90
18139;DHT22;9195;53.176;9.486;2022-12-07T00:39:02;4.00;99.90
18139;DHT22;9195;53.176;9.486;2022-12-07T00:41:29;3.90;99.90
18139;DHT22;9195;53.176;9.486;2022-12-07T00:43:55;4.00;99.90
18139;DHT22;9195;53.176;9.486;2022-12-07T00:46:21;4.00;99.90
18139;DHT22;9195;53.176;9.486;2022-12-07T00:48:48;4.00;99.90
18139;DHT22;9195;53.176;9.486;2022-12-07T00:51:16;4.10;99.90
18139;DHT22;9195;53.176;9.486;2022-12-07T00:53:42;4.10;99.90
18139;DHT22;9195;53.176;9.486;2022-12-07T00:56:08;4.10;99.90
18139;DHT22;9195;53.176;9.486;2022-12-07T00:58:34;4.20;99.90
18139;DHT22;9195;53.176;9.486;2022-12-07T01:01:04;4.10;99.90
18139;DHT22;9195;53.176;9.486;2022-12-07T01:03:30;4.20;99.90
18139;DHT22;9195;53.176;9.486;2022-12-07T01:05:56;4.20;99.90
18139;DHT22;9195;53.176;9.486;2022-12-07T01:08:23;4.20;99.90
18139;DHT22;9195;53.176;9.486;2022-12-07T01:10:49;4.10;99.90
18139;DHT22;9195;53.176;9.486;2022-12-07T01:13:15;4.10;99.90
18139;DHT22;9195;53.176;9.486;2022-12-07T01:15:44;4.20;99.90
18139;DHT22;9195;53.176;9.486;2022-12-07T01:18:11;4.10;99.90
18139;DHT22;9195;53.176;9.486;2022-12-07T01:20:37;4.00;99.90
18139;DHT22;9195;53.176;9.486;2022-12-07T01:23:03;4.00;99.90
18139;DHT22;9195;53.176;9.486;2022-12-07T01:25:28;3.90;99.90
18139;DHT22;9195;53.176;9.486;2022-12-07T01:27:54;3.80;99.90
18139;DHT22;9195;53.176;9.486;2022-12-07T01:30:20;3.70;99.90
18139;DHT22;9195;53.176;9.486;2022-12-07T01:32:45;3.60;99.90
18139;DHT22;9195;53.176;9.486;2022-12-07T01:35:11;3.60;99.90
18139;DHT22;9195;53.176;9.486;2022-12-07T01:37:38;3.60;99.90
18139;DHT22;9195;53.176;9.486;2022-12-07T01:40:07;3.40;99.90
18139;DHT22;9195;53.176;9.486;2022-12-07T01:42:34;3.40;99.90
18139;DHT22;9195;53.176;9.486;2022-12-07T01:47:47;3.50;99.90
18139;DHT22;9195;53.176;9.486;2022-12-07T01:50:14;3.50;99.90
18139;DHT22;9195;53.176;9.486;2022-12-07T01:52:41;3.50;99.90
18139;DHT22;9195;53.176;9.486;2022-12-07T01:55:10;3.40;99.90
18139;DHT22;9195;53.176;9.486;2022-12-07T01:57:41;3.30;99.90
18139;DHT22;9195;53.176;9.486;2022-12-07T02:00:08;3.20;99.90
18139;DHT22;9195;53.176;9.486;2022-12-07T02:02:37;3.10;99.90
18139;DHT22;9195;53.176;9.486;2022-12-07T02:05:05;3.10;99.90
18139;DHT22;9195;53.176;9.486;2022-12-07T02:07:34;3.00;99.90
18139;DHT22;9195;53.176;9.486;2022-12-07T02:12:43;3.00;99.90
18139;DHT22;9195;53.176;9.486;2022-12-07T02:15:10;3.00;99.90
18139;DHT22;9195;53.176;9.486;2022-12-07T02:17:57;3.00;99.90
18139;DHT22;9195;53.176;9.486;2022-12-07T02:20:39;3.00;99.90
18139;DHT22;9195;53.176;9.486;2022-12-07T02:23:44;2.80;99.90
18139;DHT22;9195;53.176;9.486;2022-12-07T02:31:31;2.70;99.90
18139;DHT22;9195;53.176;9.486;2022-12-07T02:34:12;2.70;99.90
18139;DHT22;9195;53.176;9.486;2022-12-07T02:36:45;2.60;99.90
18139;DHT22;9195;53.176;9.486;2022-12-07T02:39:18;2.50;99.90
18139;DHT22;9195;53.176;9.486;2022-12-07T02:41:52;2.50;99.90
18139;DHT22;9195;53.176;9.486;2022-12-07T02:44:23;2.50;99.90
18139;DHT22;9195;53.176;9.486;2022-12-07T02:46:55;2.50;99.90
18139;DHT22;9195;53.176;9.486;2022-12-07T02:49:24;2.50;99.90
18139;DHT22;9195;53.176;9.486;2022-12-07T02:51:50;2.60;99.90
18139;DHT22;9195;53.176;9.486;2022-12-07T02:54:19;2.50;99.90
18139;DHT22;9195;53.176;9.486;2022-12-07T02:59:39;2.50;99.90
18139;DHT22;9195;53.176;9.486;2022-12-07T03:04:49;2.50;99.90
18139;DHT22;9195;53.176;9.486;2022-12-07T03:15:46;2.40;99.90
18139;DHT22;9195;53.176;9.486;2022-12-07T03:18:17;2.30;99.90
18139;DHT22;9195;53.176;9.486;2022-12-07T03:20:45;2.30;99.90
18139;DHT22;9195;53.176;9.486;2022-12-07T03:23:15;2.30;99.90
18139;DHT22;9195;53.176;9.486;2022-12-07T03:25:46;2.30;99.90
18139;DHT22;9195;53.176;9.486;2022-12-07T03:28:16;2.30;99.90
18139;DHT22;9195;53.176;9.486;2022-12-07T03:31:26;2.20;99.90
18139;DHT22;9195;53.176;9.486;2022-12-07T03:36:35;2.20;99.90
18139;DHT22;9195;53.176;9.486;2022-12-07T03:39:06;2.20;99.90
18139;DHT22;9195;53.176;9.486;2022-12-07T03:41:35;2.20;99.90
18139;DHT22;9195;53.176;9.486;2022-12-07T03:44:02;2.10;99.90
18139;DHT22;9195;53.176;9.486;2022-12-07T03:51:28;2.10;99.90
18139;DHT22;9195;53.176;9.486;2022-12-07T03:54:15;2.20;99.90
18139;DHT22;9195;53.176;9.486;2022-12-07T03:56:43;2.20;99.90
18139;DHT22;9195;53.176;9.486;2022-12-07T03:59:11;2.30;99.90
18139;DHT22;9195;53.176;9.486;2022-12-07T04:01:38;2.30;99.90
18139;DHT22;9195;53.176;9.486;2022-12-07T04:04:03;2.40;99.90
18139;DHT22;9195;53.176;9.486;2022-12-07T04:06:29;2.30;99.90
18139;DHT22;9195;53.176;9.486;2022-12-07T04:08:55;2.30;99.90
18139;DHT22;9195;53.176;9.486;2022-12-07T04:11:20;2.30;99.90
18139;DHT22;9195;53.176;9.486;2022-12-07T04:13:46;2.30;99.90
18139;DHT22;9195;53.176;9.486;2022-12-07T04:16:30;2.30;99.90
18139;DHT22;9195;53.176;9.486;2022-12-07T04:18:55;2.30;99.90
18139;DHT22;9195;53.176;9.486;2022-12-07T04:21:21;2.40;99.90
18139;DHT22;9195;53.176;9.486;2022-12-07T04:23:47;2.40;99.90
18139;DHT22;9195;53.176;9.486;2022-12-07T04:26:12;2.50;99.90
18139;DHT22;9195;53.176;9.486;2022-12-07T04:28:38;2.60;99.90
18139;DHT22;9195;53.176;9.486;2022-12-07T04:31:03;2.50;99.90
18139;DHT22;9195;53.176;9.486;2022-12-07T04:33:29;2.60;99.90
18139;DHT22;9195;53.176;9.486;2022-12-07T04:35:55;2.60;99.90
18139;DHT22;9195;53.176;9.486;2022-12-07T04:38:20;2.60;99.90
18139;DHT22;9195;53.176;9.486;2022-12-07T04:40:46;2.60;99.90
18139;DHT22;9195;53.176;9.486;2022-12-07T04:43:11;2.60;99.90
18139;DHT22;9195;53.176;9.486;2022-12-07T04:45:37;2.70;99.90
18139;DHT22;9195;53.176;9.486;2022-12-07T04:48:03;2.70;99.90
18139;DHT22;9195;53.176;9.486;2022-12-07T04:50:28;2.80;99.90
18139;DHT22;9195;53.176;9.486;2022-12-07T04:52:54;2.90;99.90
18139;DHT22;9195;53.176;9.486;2022-12-07T04:55:19;2.90;99.90
18139;DHT22;9195;53.176;9.486;2022-12-07T04:57:45;3.00;99.90
18139;DHT22;9195;53.176;9.486;2022-12-07T05:00:11;3.00;99.90
18139;DHT22;9195;53.176;9.486;2022-12-07T05:02:36;3.00;99.90
18139;DHT22;9195;53.176;9.486;2022-12-07T05:05:02;3.00;99.90
18139;DHT22;9195;53.176;9.486;2022-12-07T05:07:28;3.10;99.90
18139;DHT22;9195;53.176;9.486;2022-12-07T05:09:53;3.10;99.90
18139;DHT22;9195;53.176;9.486;2022-12-07T05:12:19;3.10;99.90
18139;DHT22;9195;53.176;9.486;2022-12-07T05:14:45;3.10;99.90
18139;DHT22;9195;53.176;9.486;2022-12-07T05:17:10;3.10;99.90
18139;DHT22;9195;53.176;9.486;2022-12-07T05:19:36;3.10;99.90
18139;DHT22;9195;53.176;9.486;2022-12-07T05:22:02;3.10;99.90
18139;DHT22;9195;53.176;9.486;2022-12-07T05:24:28;3.00;99.90
18139;DHT22;9195;53.176;9.486;2022-12-07T05:26:53;2.90;99.90
18139;DHT22;9195;53.176;9.486;2022-12-07T05:29:19;2.80;99.90
18139;DHT22;9195;53.176;9.486;2022-12-07T05:31:44;2.90;99.90
18139;DHT22;9195;53.176;9.486;2022-12-07T05:34:11;2.80;99.90
18139;DHT22;9195;53.176;9.486;2022-12-07T05:36:37;2.80;99.90
18139;DHT22;9195;53.176;9.486;2022-12-07T05:39:03;2.70;99.90
18139;DHT22;9195;53.176;9.486;2022-12-07T05:41:28;2.70;99.90
18139;DHT22;9195;53.176;9.486;2022-12-07T05:44:13;2.70;99.90
18139;DHT22;9195;53.176;9.486;2022-12-07T05:46:38;2.70;99.90
18139;DHT22;9195;53.176;9.486;2022-12-07T05:49:04;2.70;99.90
18139;DHT22;9195;53.176;9.486;2022-12-07T05:51:29;2.70;99.90
18139;DHT22;9195;53.176;9.486;2022-12-07T05:53:55;2.70;99.90
18139;DHT22;9195;53.176;9.486;2022-12-07T05:56:21;2.80;99.90
18139;DHT22;9195;53.176;9.486;2022-12-07T05:58:46;2.80;99.90
18139;DHT22;9195;53.176;9.486;2022-12-07T06:01:30;2.90;99.90
18139;DHT22;9195;53.176;9.486;2022-12-07T06:03:56;2.90;99.90
18139;DHT22;9195;53.176;9.486;2022-12-07T06:06:22;2.90;99.90
18139;DHT22;9195;53.176;9.486;2022-12-07T06:08:47;2.90;99.90
18139;DHT22;9195;53.176;9.486;2022-12-07T06:11:13;2.90;99.90
18139;DHT22;9195;53.176;9.486;2022-12-07T06:13:57;2.90;99.90
18139;DHT22;9195;53.176;9.486;2022-12-07T06:16:23;3.00;99.90
18139;DHT22;9195;53.176;9.486;2022-12-07T06:18:48;3.00;99.90
18139;DHT22;9195;53.176;9.486;2022-12-07T06:21:14;3.00;99.90
18139;DHT22;9195;53.176;9.486;2022-12-07T06:23:40;2.90;99.90
18139;DHT22;9195;53.176;9.486;2022-12-07T06:26:05;3.00;99.90
18139;DHT22;9195;53.176;9.486;2022-12-07T06:28:31;3.00;99.90
18139;DHT22;9195;53.176;9.486;2022-12-07T06:31:01;3.00;99.90
18139;DHT22;9195;53.176;9.486;2022-12-07T06:33:28;2.90;99.90
18139;DHT22;9195;53.176;9.486;2022-12-07T06:35:54;2.90;99.90
18139;DHT22;9195;53.176;9.486;2022-12-07T06:38:19;2.90;99.90
18139;DHT22;9195;53.176;9.486;2022-12-07T06:40:45;2.90;99.90
18139;DHT22;9195;53.176;9.486;2022-12-07T06:43:11;2.90;99.90
18139;DHT22;9195;53.176;9.486;2022-12-07T06:45:37;2.90;99.90
18139;DHT22;9195;53.176;9.486;2022-12-07T06:48:02;2.90;99.90
18139;DHT22;9195;53.176;9.486;2022-12-07T06:50:28;2.90;99.90
18139;DHT22;9195;53.176;9.486;2022-12-07T06:52:54;2.80;99.90
18139;DHT22;9195;53.176;9.486;2022-12-07T06:55:19;2.80;99.90
18139;DHT22;9195;53.176;9.486;2022-12-07T06:57:45;2.70;99.90
18139;DHT22;9195;53.176;9.486;2022-12-07T07:00:11;2.70;99.90
18139;DHT22;9195;53.176;9.486;2022-12-07T07:02:37;2.70;99.90
18139;DHT22;9195;53.176;9.486;2022-12-07T07:05:03;2.70;99.90
18139;DHT22;9195;53.176;9.486;2022-12-07T07:07:29;2.70;99.90
18139;DHT22;9195;53.176;9.486;2022-12-07T07:09:54;2.70;99.90
18139;DHT22;9195;53.176;9.486;2022-12-07T07:12:20;2.60;99.90
18139;DHT22;9195;53.176;9.486;2022-12-07T07:14:46;2.70;99.90
18139;DHT22;9195;53.176;9.486;2022-12-07T07:17:12;2.50;99.90
18139;DHT22;9195;53.176;9.486;2022-12-07T07:19:38;2.50;99.90
18139;DHT22;9195;53.176;9.486;2022-12-07T07:22:04;2.50;99.90
18139;DHT22;9195;53.176;9.486;2022-12-07T07:24:29;2.40;99.90
18139;DHT22;9195;53.176;9.486;2022-12-07T07:26:55;2.40;99.90
18139;DHT22;9195;53.176;9.486;2022-12-07T07:29:21;2.40;99.90
18139;DHT22;9195;53.176;9.486;2022-12-07T07:31:46;2.30;99.90
18139;DHT22;9195;53.176;9.486;2022-12-07T07:34:12;2.40;99.90
18139;DHT22;9195;53.176;9.486;2022-12-07T07:36:38;2.40;99.90
18139;DHT22;9195;53.176;9.486;2022-12-07T07:39:03;2.50;99.90
18139;DHT22;9195;53.176;9.486;2022-12-07T07:41:30;2.50;99.90
18139;DHT22;9195;53.176;9.486;2022-12-07T07:43:57;2.50;99.90
18139;DHT22;9195;53.176;9.486;2022-12-07T07:46:22;2.60;99.90
18139;DHT22;9195;53.176;9.486;2022-12-07T07:48:48;2.70;99.90
18139;DHT22;9195;53.176;9.486;2022-12-07T07:51:14;2.60;99.90
18139;DHT22;9195;53.176;9.486;2022-12-07T07:53:39;2.70;99.90
18139;DHT22;9195;53.176;9.486;2022-12-07T07:56:05;2.70;99.90
18139;DHT22;9195;53.176;9.486;2022-12-07T07:58:31;2.70;99.90
18139;DHT22;9195;53.176;9.486;2022-12-07T08:00:56;2.70;99.90
18139;DHT22;9195;53.176;9.486;2022-12-07T08:03:22;2.70;99.90
18139;DHT22;9195;53.176;9.486;2022-12-07T08:05:48;2.70;99.90
18139;DHT22;9195;53.176;9.486;2022-12-07T08:08:13;2.70;99.90
18139;DHT22;9195;53.176;9.486;2022-12-07T08:10:39;2.80;99.90
18139;DHT22;9195;53.176;9.486;2022-12-07T08:13:04;2.90;99.90
18139;DHT22;9195;53.176;9.486;2022-12-07T08:15:38;2.90;99.90
18139;DHT22;9195;53.176;9.486;2022-12-07T08:18:04;3.00;99.90
18139;DHT22;9195;53.176;9.486;2022-12-07T08:20:31;3.10;99.90
18139;DHT22;9195;53.176;9.486;2022-12-07T08:22:58;3.10;99.90
18139;DHT22;9195;53.176;9.486;2022-12-07T08:25:24;3.30;99.90
18139;DHT22;9195;53.176;9.486;2022-12-07T08:27:51;3.30;99.90
18139;DHT22;9195;53.176;9.486;2022-12-07T08:30:16;3.30;99.90
18139;DHT22;9195;53.176;9.486;2022-12-07T08:32:44;3.30;99.90
18139;DHT22;9195;53.176;9.486;2022-12-07T08:35:10;3.30;99.90
18139;DHT22;9195;53.176;9.486;2022-12-07T08:37:36;3.40;99.90
18139;DHT22;9195;53.176;9.486;2022-12-07T08:40:03;3.40;99.90
18139;DHT22;9195;53.176;9.486;2022-12-07T08:42:28;3.50;99.90
18139;DHT22;9195;53.176;9.486;2022-12-07T08:45:07;3.50;99.90
18139;DHT22;9195;53.176;9.486;2022-12-07T08:47:37;3.50;99.90
18139;DHT22;9195;53.176;9.486;2022-12-07T08:50:06;3.60;99.90
18139;DHT22;9195;53.176;9.486;2022-12-07T08:52:33;3.90;99.90
18139;DHT22;9195;53.176;9.486;2022-12-07T08:55:00;3.90;99.90
18139;DHT22;9195;53.176;9.486;2022-12-07T08:57:28;3.90;99.90
18139;DHT22;9195;53.176;9.486;2022-12-07T08:59:54;3.80;99.90
18139;DHT22;9195;53.176;9.486;2022-12-07T09:02:19;3.90;99.90
18139;DHT22;9195;53.176;9.486;2022-12-07T09:04:45;4.00;99.90
18139;DHT22;9195;53.176;9.486;2022-12-07T09:07:11;4.00;99.90
18139;DHT22;9195;53.176;9.486;2022-12-07T09:09:36;4.00;99.90
18139;DHT22;9195;53.176;9.486;2022-12-07T09:12:02;4.10;99.90
18139;DHT22;9195;53.176;9.486;2022-12-07T09:14:28;4.10;99.90
18139;DHT22;9195;53.176;9.486;2022-12-07T09:16:54;4.20;99.90
18139;DHT22;9195;53.176;9.486;2022-12-07T09:19:19;4.20;99.90
18139;DHT22;9195;53.176;9.486;2022-12-07T09:21:45;4.30;99.90
18139;DHT22;9195;53.176;9.486;2022-12-07T09:24:12;4.20;99.90
18139;DHT22;9195;53.176;9.486;2022-12-07T09:26:38;4.20;99.90
18139;DHT22;9195;53.176;9.486;2022-12-07T09:29:05;4.30;99.90
18139;DHT22;9195;53.176;9.486;2022-12-07T09:31:31;4.30;99.90
18139;DHT22;9195;53.176;9.486;2022-12-07T09:33:58;4.40;99.90
18139;DHT22;9195;53.176;9.486;2022-12-07T09:36:25;4.40;99.90
18139;DHT22;9195;53.176;9.486;2022-12-07T09:38:50;4.40;99.90
18139;DHT22;9195;53.176;9.486;2022-12-07T09:41:16;4.50;99.90
18139;DHT22;9195;53.176;9.486;2022-12-07T09:43:42;4.60;99.90
18139;DHT22;9195;53.176;9.486;2022-12-07T09:46:13;4.50;99.90
18139;DHT22;9195;53.176;9.486;2022-12-07T09:48:40;4.30;99.90
18139;DHT22;9195;53.176;9.486;2022-12-07T09:51:18;4.30;99.90
18139;DHT22;9195;53.176;9.486;2022-12-07T09:53:46;4.30;99.90
18139;DHT22;9195;53.176;9.486;2022-12-07T09:56:14;4.40;99.90
18139;DHT22;9195;53.176;9.486;2022-12-07T09:58:40;4.40;99.90
18139;DHT22;9195;53.176;9.486;2022-12-07T10:03:33;4.60;99.90
18139;DHT22;9195;53.176;9.486;2022-12-07T10:05:59;4.70;99.90
18139;DHT22;9195;53.176;9.486;2022-12-07T10:08:25;4.90;99.90
18139;DHT22;9195;53.176;9.486;2022-12-07T10:10:55;4.90;99.90
18139;DHT22;9195;53.176;9.486;2022-12-07T10:13:37;5.00;99.90
18139;DHT22;9195;53.176;9.486;2022-12-07T10:16:03;5.00;99.90
18139;DHT22;9195;53.176;9.486;2022-12-07T10:18:37;5.10;99.90
18139;DHT22;9195;53.176;9.486;2022-12-07T10:21:22;5.30;99.90
18139;DHT22;9195;53.176;9.486;2022-12-07T10:24:05;5.50;99.90
18139;DHT22;9195;53.176;9.486;2022-12-07T10:29:20;6.10;99.90
18139;DHT22;9195;53.176;9.486;2022-12-07T10:31:56;5.90;99.90
18139;DHT22;9195;53.176;9.486;2022-12-07T10:34:28;5.80;99.90
18139;DHT22;9195;53.176;9.486;2022-12-07T10:40:01;5.90;99.90
18139;DHT22;9195;53.176;9.486;2022-12-07T10:45:15;5.70;99.90
18139;DHT22;9195;53.176;9.486;2022-12-07T10:48:02;5.60;99.90
18139;DHT22;9195;53.176;9.486;2022-12-07T11:06:51;6.40;99.90
18139;DHT22;9195;53.176;9.486;2022-12-07T11:09:42;6.50;99.90
18139;DHT22;9195;53.176;9.486;2022-12-07T11:15:18;6.80;99.90
18139;DHT22;9195;53.176;9.486;2022-12-07T11:32:09;6.50;99.90
18139;DHT22;9195;53.176;9.486;2022-12-07T11:35:01;6.50;99.90
18139;DHT22;9195;53.176;9.486;2022-12-07T11:37:34;6.30;99.90
18139;DHT22;9195;53.176;9.486;2022-12-07T11:40:13;6.20;99.90
18139;DHT22;9195;53.176;9.486;2022-12-07T11:42:45;6.10;99.90
18139;DHT22;9195;53.176;9.486;2022-12-07T11:45:19;6.20;99.90
18139;DHT22;9195;53.176;9.486;2022-12-07T11:48:11;6.10;99.90
18139;DHT22;9195;53.176;9.486;2022-12-07T11:50:43;6.10;99.90
18139;DHT22;9195;53.176;9.486;2022-12-07T12:00:39;6.40;99.90
18139;DHT22;9195;53.176;9.486;2022-12-07T12:03:16;6.30;99.90
18139;DHT22;9195;53.176;9.486;2022-12-07T12:05:45;6.30;99.90
18139;DHT22;9195;53.176;9.486;2022-12-07T12:22:40;6.00;99.90
18139;DHT22;9195;53.176;9.486;2022-12-07T12:27:47;6.00;99.90
18139;DHT22;9195;53.176;9.486;2022-12-07T12:30:43;5.90;99.90
18139;DHT22;9195;53.176;9.486;2022-12-07T12:33:28;5.70;99.90
18139;DHT22;9195;53.176;9.486;2022-12-07T12:51:53;5.40;99.90
18139;DHT22;9195;53.176;9.486;2022-12-07T12:54:26;5.40;99.90
18139;DHT22;9195;53.176;9.486;2022-12-07T12:59:59;5.50;99.90
18139;DHT22;9195;53.176;9.486;2022-12-07T13:02:37;5.30;99.90
18139;DHT22;9195;53.176;9.486;2022-12-07T13:10:41;5.00;99.90
18139;DHT22;9195;53.176;9.486;2022-12-07T13:23:22;4.10;99.90
18139;DHT22;9195;53.176;9.486;2022-12-07T13:28:22;4.00;99.90
18139;DHT22;9195;53.176;9.486;2022-12-07T13:31:04;4.10;99.90
18139;DHT22;9195;53.176;9.486;2022-12-07T13:33:35;4.10;99.90
18139;DHT22;9195;53.176;9.486;2022-12-07T13:36:01;4.20;99.90
18139;DHT22;9195;53.176;9.486;2022-12-07T13:38:27;4.30;99.90
18139;DHT22;9195;53.176;9.486;2022-12-07T13:43:30;4.60;99.90
18139;DHT22;9195;53.176;9.486;2022-12-07T13:45:58;4.70;99.90
18139;DHT22;9195;53.176;9.486;2022-12-07T13:48:32;4.80;99.90
18139;DHT22;9195;53.176;9.486;2022-12-07T13:50:59;4.80;99.90
18139;DHT22;9195;53.176;9.486;2022-12-07T13:53:25;5.00;99.90
18139;DHT22;9195;53.176;9.486;2022-12-07T13:55:59;5.00;99.90
18139;DHT22;9195;53.176;9.486;2022-12-07T13:58:26;5.00;99.90
18139;DHT22;9195;53.176;9.486;2022-12-07T14:00:53;5.00;99.90
18139;DHT22;9195;53.176;9.486;2022-12-07T14:03:27;5.00;99.90
18139;DHT22;9195;53.176;9.486;2022-12-07T14:08:30;4.60;99.90
18139;DHT22;9195;53.176;9.486;2022-12-07T14:10:57;4.60;99.90
18139;DHT22;9195;53.176;9.486;2022-12-07T14:13:39;4.70;99.90
18139;DHT22;9195;53.176;9.486;2022-12-07T14:18:47;4.80;99.90
18139;DHT22;9195;53.176;9.486;2022-12-07T14:23:39;4.80;99.90
18139;DHT22;9195;53.176;9.486;2022-12-07T14:26:11;4.90;99.90
18139;DHT22;9195;53.176;9.486;2022-12-07T14:28:37;4.80;99.90
18139;DHT22;9195;53.176;9.486;2022-12-07T14:31:13;4.70;99.90
18139;DHT22;9195;53.176;9.486;2022-12-07T14:33:39;4.70;99.90
18139;DHT22;9195;53.176;9.486;2022-12-07T14:36:05;4.60;99.90
18139;DHT22;9195;53.176;9.486;2022-12-07T14:38:31;4.50;99.90
18139;DHT22;9195;53.176;9.486;2022-12-07T14:40:57;4.30;99.90
18139;DHT22;9195;53.176;9.486;2022-12-07T14:43:42;4.30;99.90
18139;DHT22;9195;53.176;9.486;2022-12-07T14:46:09;4.10;99.90
18139;DHT22;9195;53.176;9.486;2022-12-07T14:48:35;4.10;99.90
18139;DHT22;9195;53.176;9.486;2022-12-07T14:51:00;3.90;99.90
18139;DHT22;9195;53.176;9.486;2022-12-07T14:53:31;3.80;99.90
18139;DHT22;9195;53.176;9.486;2022-12-07T14:55:58;3.70;99.90
18139;DHT22;9195;53.176;9.486;2022-12-07T14:58:24;3.60;99.90
18139;DHT22;9195;53.176;9.486;2022-12-07T15:00:50;3.40;99.90
18139;DHT22;9195;53.176;9.486;2022-12-07T15:03:15;3.30;99.90
18139;DHT22;9195;53.176;9.486;2022-12-07T15:05:41;3.10;99.90
18139;DHT22;9195;53.176;9.486;2022-12-07T15:08:09;3.00;99.90
18139;DHT22;9195;53.176;9.486;2022-12-07T15:10:35;2.90;99.90
18139;DHT22;9195;53.176;9.486;2022-12-07T15:13:04;2.90;99.90
18139;DHT22;9195;53.176;9.486;2022-12-07T15:15:50;2.80;99.90
18139;DHT22;9195;53.176;9.486;2022-12-07T15:18:16;2.60;99.90
18139;DHT22;9195;53.176;9.486;2022-12-07T15:20:43;2.50;99.90
18139;DHT22;9195;53.176;9.486;2022-12-07T15:23:10;2.50;99.90
18139;DHT22;9195;53.176;9.486;2022-12-07T15:25:36;2.40;99.90
18139;DHT22;9195;53.176;9.486;2022-12-07T15:28:02;2.30;99.90
18139;DHT22;9195;53.176;9.486;2022-12-07T15:30:28;2.30;99.90
18139;DHT22;9195;53.176;9.486;2022-12-07T15:32:54;2.30;99.90
18139;DHT22;9195;53.176;9.486;2022-12-07T15:35:20;2.20;99.90
18139;DHT22;9195;53.176;9.486;2022-12-07T15:37:46;2.30;99.90
18139;DHT22;9195;53.176;9.486;2022-12-07T15:40:12;2.20;99.90
18139;DHT22;9195;53.176;9.486;2022-12-07T15:42:39;2.20;99.90
18139;DHT22;9195;53.176;9.486;2022-12-07T15:45:07;2.30;99.90
18139;DHT22;9195;53.176;9.486;2022-12-07T15:47:38;2.30;99.90
18139;DHT22;9195;53.176;9.486;2022-12-07T15:50:06;2.40;99.90
18139;DHT22;9195;53.176;9.486;2022-12-07T15:52:32;2.30;99.90
18139;DHT22;9195;53.176;9.486;2022-12-07T15:54:58;2.50;99.90
18139;DHT22;9195;53.176;9.486;2022-12-07T15:57:26;2.50;99.90
18139;DHT22;9195;53.176;9.486;2022-12-07T15:59:52;2.50;99.90
18139;DHT22;9195;53.176;9.486;2022-12-07T16:02:18;2.40;99.90
18139;DHT22;9195;53.176;9.486;2022-12-07T16:04:44;2.40;99.90
18139;DHT22;9195;53.176;9.486;2022-12-07T16:07:10;2.40;99.90
18139;DHT22;9195;53.176;9.486;2022-12-07T16:09:37;2.40;99.90
18139;DHT22;9195;53.176;9.486;2022-12-07T16:12:03;2.50;99.90
18139;DHT22;9195;53.176;9.486;2022-12-07T16:14:29;2.50;99.90
18139;DHT22;9195;53.176;9.486;2022-12-07T16:16:55;2.50;99.90
18139;DHT22;9195;53.176;9.486;2022-12-07T16:19:20;2.50;99.90
18139;DHT22;9195;53.176;9.486;2022-12-07T16:21:46;2.50;99.90
18139;DHT22;9195;53.176;9.486;2022-12-07T16:24:12;2.60;99.90
18139;DHT22;9195;53.176;9.486;2022-12-07T16:26:40;2.70;99.90
18139;DHT22;9195;53.176;9.486;2022-12-07T16:29:06;2.60;99.90
18139;DHT22;9195;53.176;9.486;2022-12-07T16:31:31;2.70;99.90
18139;DHT22;9195;53.176;9.486;2022-12-07T16:33:58;2.60;99.90
18139;DHT22;9195;53.176;9.486;2022-12-07T16:36:24;2.60;99.90
18139;DHT22;9195;53.176;9.486;2022-12-07T16:38:51;2.60;99.90
18139;DHT22;9195;53.176;9.486;2022-12-07T16:41:17;2.60;99.90
18139;DHT22;9195;53.176;9.486;2022-12-07T16:43:43;2.70;99.90
18139;DHT22;9195;53.176;9.486;2022-12-07T16:46:09;2.70;99.90
18139;DHT22;9195;53.176;9.486;2022-12-07T16:48:39;2.70;99.90
18139;DHT22;9195;53.176;9.486;2022-12-07T16:51:06;2.70;99.90
18139;DHT22;9195;53.176;9.486;2022-12-07T16:53:34;2.80;99.90
18139;DHT22;9195;53.176;9.486;2022-12-07T16:56:00;2.80;99.90
18139;DHT22;9195;53.176;9.486;2022-12-07T16:58:27;2.80;99.90
18139;DHT22;9195;53.176;9.486;2022-12-07T17:00:53;2.80;99.90
18139;DHT22;9195;53.176;9.486;2022-12-07T17:03:18;2.90;99.90
18139;DHT22;9195;53.176;9.486;2022-12-07T17:05:45;2.70;99.90
18139;DHT22;9195;53.176;9.486;2022-12-07T17:08:11;2.70;99.90
18139;DHT22;9195;53.176;9.486;2022-12-07T17:10:39;2.70;99.90
18139;DHT22;9195;53.176;9.486;2022-12-07T17:13:06;2.70;99.90
18139;DHT22;9195;53.176;9.486;2022-12-07T17:16:03;2.70;99.90
18139;DHT22;9195;53.176;9.486;2022-12-07T17:18:31;2.60;99.90
18139;DHT22;9195;53.176;9.486;2022-12-07T17:21:05;2.60;99.90
18139;DHT22;9195;53.176;9.486;2022-12-07T17:23:32;2.50;99.90
18139;DHT22;9195;53.176;9.486;2022-12-07T17:26:06;2.50;99.90
18139;DHT22;9195;53.176;9.486;2022-12-07T17:28:32;2.40;99.90
18139;DHT22;9195;53.176;9.486;2022-12-07T17:30:58;2.40;99.90
18139;DHT22;9195;53.176;9.486;2022-12-07T17:33:23;2.40;99.90
18139;DHT22;9195;53.176;9.486;2022-12-07T17:35:49;2.30;99.90
18139;DHT22;9195;53.176;9.486;2022-12-07T17:38:14;2.20;99.90
18139;DHT22;9195;53.176;9.486;2022-12-07T17:40:40;2.20;99.90
18139;DHT22;9195;53.176;9.486;2022-12-07T17:43:06;2.10;99.90
18139;DHT22;9195;53.176;9.486;2022-12-07T17:45:31;2.00;99.90
18139;DHT22;9195;53.176;9.486;2022-12-07T17:47:57;1.90;99.90
18139;DHT22;9195;53.176;9.486;2022-12-07T17:50:23;1.80;99.90
18139;DHT22;9195;53.176;9.486;2022-12-07T17:53:11;1.70;99.90
18139;DHT22;9195;53.176;9.486;2022-12-07T17:55:37;1.60;99.90
18139;DHT22;9195;53.176;9.486;2022-12-07T17:58:03;1.50;99.90
18139;DHT22;9195;53.176;9.486;2022-12-07T18:00:29;1.50;99.90
18139;DHT22;9195;53.176;9.486;2022-12-07T18:02:54;1.40;99.90
18139;DHT22;9195;53.176;9.486;2022-12-07T18:05:20;1.40;99.90
18139;DHT22;9195;53.176;9.486;2022-12-07T18:07:46;1.30;99.90
18139;DHT22;9195;53.176;9.486;2022-12-07T18:10:12;1.20;99.90
18139;DHT22;9195;53.176;9.486;2022-12-07T18:12:38;1.20;99.90
18139;DHT22;9195;53.176;9.486;2022-12-07T18:15:05;1.10;99.90
18139;DHT22;9195;53.176;9.486;2022-12-07T18:17:31;1.10;99.90
18139;DHT22;9195;53.176;9.486;2022-12-07T18:19:57;1.10;99.90
18139;DHT22;9195;53.176;9.486;2022-12-07T18:22:22;1.10;99.90
18139;DHT22;9195;53.176;9.486;2022-12-07T18:24:49;1.10;99.90
18139;DHT22;9195;53.176;9.486;2022-12-07T18:27:15;1.20;99.90
18139;DHT22;9195;53.176;9.486;2022-12-07T18:29:41;1.20;99.90
18139;DHT22;9195;53.176;9.486;2022-12-07T18:32:07;1.20;99.90
18139;DHT22;9195;53.176;9.486;2022-12-07T18:34:32;1.30;99.90
18139;DHT22;9195;53.176;9.486;2022-12-07T18:36:58;1.30;99.90
18139;DHT22;9195;53.176;9.486;2022-12-07T18:39:23;1.30;99.90